sensor_id;sensor_type;location;lat;lon;timestamp;P1;durP1;ratioP1;P2;durP2;ratioP2
49544;SDS011;74870;42.636;23.302;2024-03-08T00:01:39;18.07;;;13.20;;
49544;SDS011;74870;42.636;23.302;2024-03-08T00:04:05;17.17;;;12.97;;
49544;SDS011;74870;42.636;23.302;2024-03-08T00:06:31;15.50;;;12.37;;
49544;SDS011;74870;42.636;23.302;2024-03-08T00:08:57;17.93;;;13.00;;
49544;SDS011;74870;42.636;23.302;2024-03-08T00:11:22;16.70;;;12.97;;
49544;SDS011;74870;42.636;23.302;2024-03-08T00:13:51;16.77;;;13.03;;
49544;SDS011;74870;42.636;23.302;2024-03-08T00:16:17;21.17;;;15.53;;
49544;SDS011;74870;42.636;23.302;2024-03-08T00:18:44;25.43;;;18.30;;
49544;SDS011;74870;42.636;23.302;2024-03-08T00:21:10;22.67;;;16.00;;
49544;SDS011;74870;42.636;23.302;2024-03-08T00:23:37;17.87;;;13.23;;
49544;SDS011;74870;42.636;23.302;2024-03-08T00:26:02;13.43;;;11.50;;
49544;SDS011;74870;42.636;23.302;2024-03-08T00:28:29;13.63;;;11.33;;
49544;SDS011;74870;42.636;23.302;2024-03-08T00:30:55;14.83;;;11.50;;
49544;SDS011;74870;42.636;23.302;2024-03-08T00:33:21;15.13;;;11.37;;
49544;SDS011;74870;42.636;23.302;2024-03-08T00:35:46;12.20;;;9.90;;
49544;SDS011;74870;42.636;23.302;2024-03-08T00:38:12;10.27;;;9.17;;
49544;SDS011;74870;42.636;23.302;2024-03-08T00:40:38;10.97;;;9.60;;
49544;SDS011;74870;42.636;23.302;2024-03-08T00:43:05;11.20;;;9.17;;
49544;SDS011;74870;42.636;23.302;2024-03-08T00:45:31;11.43;;;9.80;;
49544;SDS011;74870;42.636;23.302;2024-03-08T00:47:56;11.13;;;9.37;;
49544;SDS011;74870;42.636;23.302;2024-03-08T00:50:22;10.40;;;8.57;;
49544;SDS011;74870;42.636;23.302;2024-03-08T00:52:47;10.20;;;8.00;;
49544;SDS011;74870;42.636;23.302;2024-03-08T00:55:13;8.83;;;7.80;;
49544;SDS011;74870;42.636;23.302;2024-03-08T00:57:38;8.53;;;7.60;;
49544;SDS011;74870;42.636;23.302;2024-03-08T01:00:06;8.40;;;7.50;;
49544;SDS011;74870;42.636;23.302;2024-03-08T01:02:37;6.90;;;6.27;;
49544;SDS011;74870;42.636;23.302;2024-03-08T01:05:05;7.73;;;6.50;;
49544;SDS011;74870;42.636;23.302;2024-03-08T01:07:34;6.87;;;6.10;;
49544;SDS011;74870;42.636;23.302;2024-03-08T01:10:01;5.77;;;5.17;;
49544;SDS011;74870;42.636;23.302;2024-03-08T01:12:28;5.07;;;4.60;;
49544;SDS011;74870;42.636;23.302;2024-03-08T01:14:54;5.33;;;4.80;;
49544;SDS011;74870;42.636;23.302;2024-03-08T01:17:19;5.47;;;5.00;;
49544;SDS011;74870;42.636;23.302;2024-03-08T01:19:45;4.50;;;4.10;;
49544;SDS011;74870;42.636;23.302;2024-03-08T01:22:10;3.83;;;3.53;;
49544;SDS011;74870;42.636;23.302;2024-03-08T01:24:36;4.07;;;3.67;;
49544;SDS011;74870;42.636;23.302;2024-03-08T01:27:02;3.23;;;3.00;;
49544;SDS011;74870;42.636;23.302;2024-03-08T01:29:28;3.73;;;3.43;;
49544;SDS011;74870;42.636;23.302;2024-03-08T01:31:55;3.60;;;3.20;;
49544;SDS011;74870;42.636;23.302;2024-03-08T01:34:21;3.47;;;3.17;;
49544;SDS011;74870;42.636;23.302;2024-03-08T01:36:47;3.87;;;3.57;;
49544;SDS011;74870;42.636;23.302;2024-03-08T01:39:13;3.73;;;3.43;;
49544;SDS011;74870;42.636;23.302;2024-03-08T01:41:39;3.60;;;3.30;;
49544;SDS011;74870;42.636;23.302;2024-03-08T01:44:05;3.50;;;3.20;;
49544;SDS011;74870;42.636;23.302;2024-03-08T01:46:32;3.73;;;3.43;;
49544;SDS011;74870;42.636;23.302;2024-03-08T01:48:58;3.83;;;3.63;;
49544;SDS011;74870;42.636;23.302;2024-03-08T01:51:28;4.10;;;3.80;;
49544;SDS011;74870;42.636;23.302;2024-03-08T01:53:56;4.40;;;4.10;;
49544;SDS011;74870;42.636;23.302;2024-03-08T01:56:24;4.00;;;3.60;;
49544;SDS011;74870;42.636;23.302;2024-03-08T01:58:50;4.30;;;3.90;;
49544;SDS011;74870;42.636;23.302;2024-03-08T02:01:16;4.33;;;4.03;;
49544;SDS011;74870;42.636;23.302;2024-03-08T02:03:44;4.13;;;3.83;;
49544;SDS011;74870;42.636;23.302;2024-03-08T02:06:11;10.53;;;3.73;;
49544;SDS011;74870;42.636;23.302;2024-03-08T02:08:39;3.70;;;3.40;;
49544;SDS011;74870;42.636;23.302;2024-03-08T02:11:04;3.20;;;3.00;;
49544;SDS011;74870;42.636;23.302;2024-03-08T02:13:30;2.63;;;2.53;;
49544;SDS011;74870;42.636;23.302;2024-03-08T02:15:59;3.03;;;2.87;;
49544;SDS011;74870;42.636;23.302;2024-03-08T02:18:26;2.77;;;2.57;;
49544;SDS011;74870;42.636;23.302;2024-03-08T02:20:52;2.70;;;2.50;;
49544;SDS011;74870;42.636;23.302;2024-03-08T02:23:19;2.60;;;2.50;;
49544;SDS011;74870;42.636;23.302;2024-03-08T02:25:45;3.37;;;3.17;;
49544;SDS011;74870;42.636;23.302;2024-03-08T02:28:11;3.10;;;2.90;;
49544;SDS011;74870;42.636;23.302;2024-03-08T02:30:37;2.80;;;2.60;;
49544;SDS011;74870;42.636;23.302;2024-03-08T02:33:03;2.83;;;2.73;;
49544;SDS011;74870;42.636;23.302;2024-03-08T02:35:29;2.90;;;2.70;;
49544;SDS011;74870;42.636;23.302;2024-03-08T02:37:55;3.33;;;2.57;;
49544;SDS011;74870;42.636;23.302;2024-03-08T02:40:20;2.63;;;2.53;;
49544;SDS011;74870;42.636;23.302;2024-03-08T02:42:47;3.03;;;2.83;;
49544;SDS011;74870;42.636;23.302;2024-03-08T02:45:12;3.13;;;2.93;;
49544;SDS011;74870;42.636;23.302;2024-03-08T02:47:38;3.10;;;2.90;;
49544;SDS011;74870;42.636;23.302;2024-03-08T02:50:04;4.30;;;3.07;;
49544;SDS011;74870;42.636;23.302;2024-03-08T02:52:33;3.33;;;3.13;;
49544;SDS011;74870;42.636;23.302;2024-03-08T02:54:59;3.47;;;3.20;;
49544;SDS011;74870;42.636;23.302;2024-03-08T02:57:24;3.57;;;3.37;;
49544;SDS011;74870;42.636;23.302;2024-03-08T02:59:49;3.43;;;3.23;;
49544;SDS011;74870;42.636;23.302;2024-03-08T03:02:15;4.00;;;3.70;;
49544;SDS011;74870;42.636;23.302;2024-03-08T03:04:41;3.20;;;3.00;;
49544;SDS011;74870;42.636;23.302;2024-03-08T03:07:07;3.97;;;3.67;;
49544;SDS011;74870;42.636;23.302;2024-03-08T03:09:32;3.33;;;3.03;;
49544;SDS011;74870;42.636;23.302;2024-03-08T03:11:58;3.97;;;3.67;;
49544;SDS011;74870;42.636;23.302;2024-03-08T03:14:24;2.90;;;2.70;;
49544;SDS011;74870;42.636;23.302;2024-03-08T03:16:51;2.27;;;2.17;;
49544;SDS011;74870;42.636;23.302;2024-03-08T03:19:17;2.40;;;2.30;;
49544;SDS011;74870;42.636;23.302;2024-03-08T03:21:42;2.30;;;2.20;;
49544;SDS011;74870;42.636;23.302;2024-03-08T03:24:08;2.93;;;2.40;;
49544;SDS011;74870;42.636;23.302;2024-03-08T03:26:38;2.30;;;1.80;;
49544;SDS011;74870;42.636;23.302;2024-03-08T03:29:07;1.83;;;1.73;;
49544;SDS011;74870;42.636;23.302;2024-03-08T03:31:34;1.80;;;1.70;;
49544;SDS011;74870;42.636;23.302;2024-03-08T03:34:00;1.90;;;1.80;;
49544;SDS011;74870;42.636;23.302;2024-03-08T03:36:28;2.13;;;2.10;;
49544;SDS011;74870;42.636;23.302;2024-03-08T03:38:57;2.40;;;2.10;;
49544;SDS011;74870;42.636;23.302;2024-03-08T03:41:41;1.70;;;1.60;;
49544;SDS011;74870;42.636;23.302;2024-03-08T03:44:11;1.67;;;1.60;;
49544;SDS011;74870;42.636;23.302;2024-03-08T03:46:36;1.70;;;1.70;;
49544;SDS011;74870;42.636;23.302;2024-03-08T03:49:02;1.80;;;1.80;;
49544;SDS011;74870;42.636;23.302;2024-03-08T03:51:28;2.30;;;2.20;;
49544;SDS011;74870;42.636;23.302;2024-03-08T03:53:54;1.90;;;1.80;;
49544;SDS011;74870;42.636;23.302;2024-03-08T03:56:24;1.80;;;1.70;;
49544;SDS011;74870;42.636;23.302;2024-03-08T03:58:50;1.70;;;1.70;;
49544;SDS011;74870;42.636;23.302;2024-03-08T04:01:16;1.83;;;1.57;;
49544;SDS011;74870;42.636;23.302;2024-03-08T04:03:41;1.50;;;1.50;;
49544;SDS011;74870;42.636;23.302;2024-03-08T04:06:08;1.57;;;1.50;;
49544;SDS011;74870;42.636;23.302;2024-03-08T04:08:33;1.90;;;1.80;;
49544;SDS011;74870;42.636;23.302;2024-03-08T04:10:59;2.40;;;2.20;;
49544;SDS011;74870;42.636;23.302;2024-03-08T04:13:25;1.93;;;1.83;;
49544;SDS011;74870;42.636;23.302;2024-03-08T04:15:51;13.70;;;9.87;;
49544;SDS011;74870;42.636;23.302;2024-03-08T04:18:16;12.40;;;9.17;;
49544;SDS011;74870;42.636;23.302;2024-03-08T04:20:43;3.97;;;3.67;;
49544;SDS011;74870;42.636;23.302;2024-03-08T04:23:08;3.33;;;3.10;;
49544;SDS011;74870;42.636;23.302;2024-03-08T04:25:34;3.10;;;2.90;;
49544;SDS011;74870;42.636;23.302;2024-03-08T04:27:59;2.40;;;2.30;;
49544;SDS011;74870;42.636;23.302;2024-03-08T04:30:25;2.23;;;2.13;;
49544;SDS011;74870;42.636;23.302;2024-03-08T04:32:53;1.90;;;1.80;;
49544;SDS011;74870;42.636;23.302;2024-03-08T04:35:19;1.90;;;1.80;;
49544;SDS011;74870;42.636;23.302;2024-03-08T04:37:45;1.83;;;1.73;;
49544;SDS011;74870;42.636;23.302;2024-03-08T04:40:10;2.33;;;2.13;;
49544;SDS011;74870;42.636;23.302;2024-03-08T04:42:37;2.10;;;2.00;;
49544;SDS011;74870;42.636;23.302;2024-03-08T04:45:04;2.53;;;2.33;;
49544;SDS011;74870;42.636;23.302;2024-03-08T04:47:30;2.50;;;2.30;;
49544;SDS011;74870;42.636;23.302;2024-03-08T04:49:56;2.53;;;2.33;;
49544;SDS011;74870;42.636;23.302;2024-03-08T04:52:22;2.63;;;2.30;;
49544;SDS011;74870;42.636;23.302;2024-03-08T04:54:47;2.40;;;2.30;;
49544;SDS011;74870;42.636;23.302;2024-03-08T04:57:13;3.97;;;3.03;;
49544;SDS011;74870;42.636;23.302;2024-03-08T04:59:38;2.70;;;2.50;;
49544;SDS011;74870;42.636;23.302;2024-03-08T05:02:04;3.17;;;2.97;;
49544;SDS011;74870;42.636;23.302;2024-03-08T05:04:31;3.10;;;2.90;;
49544;SDS011;74870;42.636;23.302;2024-03-08T05:06:57;3.00;;;2.80;;
49544;SDS011;74870;42.636;23.302;2024-03-08T05:09:22;2.60;;;2.50;;
49544;SDS011;74870;42.636;23.302;2024-03-08T05:11:48;2.03;;;1.93;;
49544;SDS011;74870;42.636;23.302;2024-03-08T05:14:15;1.83;;;1.83;;
49544;SDS011;74870;42.636;23.302;2024-03-08T05:16:47;2.43;;;2.33;;
49544;SDS011;74870;42.636;23.302;2024-03-08T05:19:16;2.10;;;2.00;;
49544;SDS011;74870;42.636;23.302;2024-03-08T05:21:45;2.20;;;2.10;;
49544;SDS011;74870;42.636;23.302;2024-03-08T05:24:14;3.20;;;3.00;;
49544;SDS011;74870;42.636;23.302;2024-03-08T05:26:40;4.03;;;3.73;;
49544;SDS011;74870;42.636;23.302;2024-03-08T05:29:07;3.60;;;3.30;;
49544;SDS011;74870;42.636;23.302;2024-03-08T05:31:46;2.90;;;2.80;;
49544;SDS011;74870;42.636;23.302;2024-03-08T05:34:15;3.30;;;3.00;;
49544;SDS011;74870;42.636;23.302;2024-03-08T05:36:41;2.70;;;2.60;;
49544;SDS011;74870;42.636;23.302;2024-03-08T05:39:11;4.73;;;4.43;;
49544;SDS011;74870;42.636;23.302;2024-03-08T05:41:41;4.30;;;4.00;;
49544;SDS011;74870;42.636;23.302;2024-03-08T05:44:07;3.50;;;2.93;;
49544;SDS011;74870;42.636;23.302;2024-03-08T05:46:33;3.20;;;3.00;;
49544;SDS011;74870;42.636;23.302;2024-03-08T05:49:00;3.50;;;3.30;;
49544;SDS011;74870;42.636;23.302;2024-03-08T05:51:30;3.20;;;3.00;;
49544;SDS011;74870;42.636;23.302;2024-03-08T05:54:01;3.00;;;2.80;;
49544;SDS011;74870;42.636;23.302;2024-03-08T05:56:28;3.57;;;3.27;;
49544;SDS011;74870;42.636;23.302;2024-03-08T05:58:54;3.13;;;2.83;;
49544;SDS011;74870;42.636;23.302;2024-03-08T06:01:19;3.60;;;3.40;;
49544;SDS011;74870;42.636;23.302;2024-03-08T06:03:45;3.73;;;3.43;;
49544;SDS011;74870;42.636;23.302;2024-03-08T06:06:13;3.90;;;3.60;;
49544;SDS011;74870;42.636;23.302;2024-03-08T06:08:39;3.33;;;3.13;;
49544;SDS011;74870;42.636;23.302;2024-03-08T06:11:05;3.40;;;3.20;;
49544;SDS011;74870;42.636;23.302;2024-03-08T06:13:33;3.83;;;3.40;;
49544;SDS011;74870;42.636;23.302;2024-03-08T06:15:59;4.50;;;4.10;;
49544;SDS011;74870;42.636;23.302;2024-03-08T06:18:26;5.20;;;4.70;;
49544;SDS011;74870;42.636;23.302;2024-03-08T06:20:51;6.03;;;5.53;;
49544;SDS011;74870;42.636;23.302;2024-03-08T06:23:17;5.80;;;5.40;;
49544;SDS011;74870;42.636;23.302;2024-03-08T06:25:43;4.90;;;4.60;;
49544;SDS011;74870;42.636;23.302;2024-03-08T06:28:09;5.23;;;4.83;;
49544;SDS011;74870;42.636;23.302;2024-03-08T06:30:35;6.40;;;5.90;;
49544;SDS011;74870;42.636;23.302;2024-03-08T06:33:00;6.93;;;6.33;;
49544;SDS011;74870;42.636;23.302;2024-03-08T06:35:25;5.50;;;5.00;;
49544;SDS011;74870;42.636;23.302;2024-03-08T06:37:51;5.37;;;4.77;;
49544;SDS011;74870;42.636;23.302;2024-03-08T06:40:16;5.97;;;5.37;;
49544;SDS011;74870;42.636;23.302;2024-03-08T06:42:42;5.57;;;5.07;;
49544;SDS011;74870;42.636;23.302;2024-03-08T06:45:08;5.80;;;5.23;;
49544;SDS011;74870;42.636;23.302;2024-03-08T06:47:35;6.13;;;5.53;;
49544;SDS011;74870;42.636;23.302;2024-03-08T06:50:01;6.07;;;5.47;;
49544;SDS011;74870;42.636;23.302;2024-03-08T06:52:26;6.60;;;6.00;;
49544;SDS011;74870;42.636;23.302;2024-03-08T06:54:52;8.93;;;6.87;;
49544;SDS011;74870;42.636;23.302;2024-03-08T06:57:18;10.70;;;9.07;;
49544;SDS011;74870;42.636;23.302;2024-03-08T06:59:45;10.23;;;9.23;;
49544;SDS011;74870;42.636;23.302;2024-03-08T07:02:11;9.23;;;8.30;;
49544;SDS011;74870;42.636;23.302;2024-03-08T07:04:36;10.33;;;9.23;;
49544;SDS011;74870;42.636;23.302;2024-03-08T07:07:06;8.53;;;7.33;;
49544;SDS011;74870;42.636;23.302;2024-03-08T07:09:37;8.63;;;7.50;;
49544;SDS011;74870;42.636;23.302;2024-03-08T07:12:03;8.50;;;7.40;;
49544;SDS011;74870;42.636;23.302;2024-03-08T07:14:29;9.27;;;7.93;;
49544;SDS011;74870;42.636;23.302;2024-03-08T07:16:55;11.13;;;9.67;;
49544;SDS011;74870;42.636;23.302;2024-03-08T07:19:21;7.93;;;7.13;;
49544;SDS011;74870;42.636;23.302;2024-03-08T07:21:46;7.07;;;6.33;;
49544;SDS011;74870;42.636;23.302;2024-03-08T07:24:12;7.80;;;6.40;;
49544;SDS011;74870;42.636;23.302;2024-03-08T07:27:04;7.23;;;6.37;;
49544;SDS011;74870;42.636;23.302;2024-03-08T07:29:30;7.27;;;6.23;;
49544;SDS011;74870;42.636;23.302;2024-03-08T07:31:56;6.47;;;5.60;;
49544;SDS011;74870;42.636;23.302;2024-03-08T07:34:37;7.10;;;6.40;;
49544;SDS011;74870;42.636;23.302;2024-03-08T07:37:04;8.23;;;6.00;;
49544;SDS011;74870;42.636;23.302;2024-03-08T07:39:30;5.97;;;5.37;;
49544;SDS011;74870;42.636;23.302;2024-03-08T07:41:56;5.93;;;5.33;;
49544;SDS011;74870;42.636;23.302;2024-03-08T07:44:22;5.23;;;4.70;;
49544;SDS011;74870;42.636;23.302;2024-03-08T07:46:48;4.63;;;4.23;;
49544;SDS011;74870;42.636;23.302;2024-03-08T07:49:14;4.73;;;4.33;;
49544;SDS011;74870;42.636;23.302;2024-03-08T07:51:40;5.63;;;4.50;;
49544;SDS011;74870;42.636;23.302;2024-03-08T07:54:05;4.90;;;4.50;;
49544;SDS011;74870;42.636;23.302;2024-03-08T07:56:30;4.90;;;4.47;;
49544;SDS011;74870;42.636;23.302;2024-03-08T07:58:56;4.73;;;4.23;;
49544;SDS011;74870;42.636;23.302;2024-03-08T08:01:21;5.07;;;4.67;;
49544;SDS011;74870;42.636;23.302;2024-03-08T08:03:47;4.97;;;4.47;;
49544;SDS011;74870;42.636;23.302;2024-03-08T08:06:15;5.00;;;4.60;;
49544;SDS011;74870;42.636;23.302;2024-03-08T08:08:41;4.70;;;4.30;;
49544;SDS011;74870;42.636;23.302;2024-03-08T08:11:07;5.30;;;4.90;;
49544;SDS011;74870;42.636;23.302;2024-03-08T08:13:34;5.27;;;4.87;;
49544;SDS011;74870;42.636;23.302;2024-03-08T08:15:59;6.90;;;5.43;;
49544;SDS011;74870;42.636;23.302;2024-03-08T08:18:25;6.13;;;5.53;;
49544;SDS011;74870;42.636;23.302;2024-03-08T08:20:51;6.63;;;5.80;;
49544;SDS011;74870;42.636;23.302;2024-03-08T08:23:17;7.30;;;6.63;;
49544;SDS011;74870;42.636;23.302;2024-03-08T08:25:44;6.57;;;5.97;;
49544;SDS011;74870;42.636;23.302;2024-03-08T08:28:10;6.83;;;6.23;;
49544;SDS011;74870;42.636;23.302;2024-03-08T08:30:37;6.37;;;5.77;;
49544;SDS011;74870;42.636;23.302;2024-03-08T08:33:03;7.77;;;5.87;;
49544;SDS011;74870;42.636;23.302;2024-03-08T08:35:30;7.33;;;5.80;;
49544;SDS011;74870;42.636;23.302;2024-03-08T08:37:56;6.57;;;6.07;;
49544;SDS011;74870;42.636;23.302;2024-03-08T08:40:24;9.60;;;7.47;;
49544;SDS011;74870;42.636;23.302;2024-03-08T08:42:50;7.30;;;6.60;;
49544;SDS011;74870;42.636;23.302;2024-03-08T08:45:17;7.53;;;6.83;;
49544;SDS011;74870;42.636;23.302;2024-03-08T08:47:46;7.37;;;6.70;;
49544;SDS011;74870;42.636;23.302;2024-03-08T08:50:12;7.20;;;6.50;;
49544;SDS011;74870;42.636;23.302;2024-03-08T08:52:38;8.13;;;6.83;;
49544;SDS011;74870;42.636;23.302;2024-03-08T08:55:04;7.37;;;6.67;;
49544;SDS011;74870;42.636;23.302;2024-03-08T08:57:31;6.20;;;5.60;;
49544;SDS011;74870;42.636;23.302;2024-03-08T08:59:58;6.33;;;5.73;;
49544;SDS011;74870;42.636;23.302;2024-03-08T09:02:23;6.70;;;6.00;;
49544;SDS011;74870;42.636;23.302;2024-03-08T09:04:51;9.20;;;6.83;;
49544;SDS011;74870;42.636;23.302;2024-03-08T09:07:16;6.70;;;6.10;;
49544;SDS011;74870;42.636;23.302;2024-03-08T09:09:43;6.50;;;5.73;;
49544;SDS011;74870;42.636;23.302;2024-03-08T09:12:09;6.10;;;5.60;;
49544;SDS011;74870;42.636;23.302;2024-03-08T09:14:38;5.87;;;5.37;;
49544;SDS011;74870;42.636;23.302;2024-03-08T09:17:05;6.13;;;5.57;;
49544;SDS011;74870;42.636;23.302;2024-03-08T09:19:31;5.70;;;5.20;;
49544;SDS011;74870;42.636;23.302;2024-03-08T09:21:58;6.57;;;6.03;;
49544;SDS011;74870;42.636;23.302;2024-03-08T09:24:23;7.03;;;6.33;;
49544;SDS011;74870;42.636;23.302;2024-03-08T09:26:49;6.80;;;5.33;;
49544;SDS011;74870;42.636;23.302;2024-03-08T09:29:14;5.83;;;5.30;;
49544;SDS011;74870;42.636;23.302;2024-03-08T09:31:40;5.87;;;5.10;;
49544;SDS011;74870;42.636;23.302;2024-03-08T09:34:05;6.30;;;5.07;;
49544;SDS011;74870;42.636;23.302;2024-03-08T09:36:33;5.00;;;4.53;;
49544;SDS011;74870;42.636;23.302;2024-03-08T09:38:59;5.20;;;4.50;;
49544;SDS011;74870;42.636;23.302;2024-03-08T09:41:25;4.97;;;4.50;;
49544;SDS011;74870;42.636;23.302;2024-03-08T09:43:51;5.87;;;4.80;;
49544;SDS011;74870;42.636;23.302;2024-03-08T09:46:16;4.80;;;4.40;;
49544;SDS011;74870;42.636;23.302;2024-03-08T09:48:44;6.23;;;4.20;;
49544;SDS011;74870;42.636;23.302;2024-03-08T09:51:11;4.80;;;4.30;;
49544;SDS011;74870;42.636;23.302;2024-03-08T09:53:40;3.70;;;3.40;;
49544;SDS011;74870;42.636;23.302;2024-03-08T09:56:07;4.53;;;4.23;;
49544;SDS011;74870;42.636;23.302;2024-03-08T09:58:33;3.63;;;3.43;;
49544;SDS011;74870;42.636;23.302;2024-03-08T10:00:58;5.13;;;3.70;;
49544;SDS011;74870;42.636;23.302;2024-03-08T10:03:27;3.27;;;3.07;;
49544;SDS011;74870;42.636;23.302;2024-03-08T10:05:53;2.80;;;2.60;;
49544;SDS011;74870;42.636;23.302;2024-03-08T10:08:21;3.10;;;2.90;;
49544;SDS011;74870;42.636;23.302;2024-03-08T10:10:47;2.97;;;2.83;;
49544;SDS011;74870;42.636;23.302;2024-03-08T10:13:14;2.67;;;2.57;;
49544;SDS011;74870;42.636;23.302;2024-03-08T10:15:41;3.40;;;3.10;;
49544;SDS011;74870;42.636;23.302;2024-03-08T10:18:07;4.00;;;3.60;;
49544;SDS011;74870;42.636;23.302;2024-03-08T10:20:33;4.97;;;3.23;;
49544;SDS011;74870;42.636;23.302;2024-03-08T10:22:59;3.70;;;3.40;;
49544;SDS011;74870;42.636;23.302;2024-03-08T10:25:25;4.47;;;3.40;;
49544;SDS011;74870;42.636;23.302;2024-03-08T10:27:51;3.57;;;2.93;;
49544;SDS011;74870;42.636;23.302;2024-03-08T10:30:17;3.97;;;3.30;;
49544;SDS011;74870;42.636;23.302;2024-03-08T10:32:46;3.97;;;3.67;;
49544;SDS011;74870;42.636;23.302;2024-03-08T10:35:13;3.03;;;2.90;;
49544;SDS011;74870;42.636;23.302;2024-03-08T10:37:48;3.60;;;3.30;;
49544;SDS011;74870;42.636;23.302;2024-03-08T10:40:22;2.87;;;2.77;;
49544;SDS011;74870;42.636;23.302;2024-03-08T10:42:56;3.63;;;3.33;;
49544;SDS011;74870;42.636;23.302;2024-03-08T10:45:29;6.00;;;4.73;;
49544;SDS011;74870;42.636;23.302;2024-03-08T10:48:20;3.93;;;3.50;;
49544;SDS011;74870;42.636;23.302;2024-03-08T10:50:52;3.63;;;3.33;;
49544;SDS011;74870;42.636;23.302;2024-03-08T10:53:18;3.03;;;2.80;;
49544;SDS011;74870;42.636;23.302;2024-03-08T10:55:47;3.47;;;3.17;;
49544;SDS011;74870;42.636;23.302;2024-03-08T10:58:14;2.83;;;2.73;;
49544;SDS011;74870;42.636;23.302;2024-03-08T11:00:41;3.60;;;3.40;;
49544;SDS011;74870;42.636;23.302;2024-03-08T11:03:06;3.10;;;2.90;;
49544;SDS011;74870;42.636;23.302;2024-03-08T11:05:35;3.20;;;3.00;;
49544;SDS011;74870;42.636;23.302;2024-03-08T11:08:05;3.40;;;3.10;;
49544;SDS011;74870;42.636;23.302;2024-03-08T11:10:53;2.93;;;2.73;;
49544;SDS011;74870;42.636;23.302;2024-03-08T11:16:07;3.20;;;3.00;;
49544;SDS011;74870;42.636;23.302;2024-03-08T11:18:35;3.97;;;2.90;;
49544;SDS011;74870;42.636;23.302;2024-03-08T11:21:04;3.17;;;2.97;;
49544;SDS011;74870;42.636;23.302;2024-03-08T11:23:37;3.00;;;2.80;;
49544;SDS011;74870;42.636;23.302;2024-03-08T11:26:03;3.13;;;2.93;;
49544;SDS011;74870;42.636;23.302;2024-03-08T11:28:32;2.63;;;2.43;;
49544;SDS011;74870;42.636;23.302;2024-03-08T11:33:27;2.60;;;2.40;;
49544;SDS011;74870;42.636;23.302;2024-03-08T11:38:43;2.57;;;2.37;;
49544;SDS011;74870;42.636;23.302;2024-03-08T11:41:09;2.50;;;2.40;;
49544;SDS011;74870;42.636;23.302;2024-03-08T11:43:39;2.40;;;2.20;;
49544;SDS011;74870;42.636;23.302;2024-03-08T11:46:11;2.67;;;2.57;;
49544;SDS011;74870;42.636;23.302;2024-03-08T11:48:40;2.57;;;2.37;;
49544;SDS011;74870;42.636;23.302;2024-03-08T11:51:12;2.40;;;2.30;;
49544;SDS011;74870;42.636;23.302;2024-03-08T11:53:39;2.40;;;2.23;;
49544;SDS011;74870;42.636;23.302;2024-03-08T11:56:08;2.40;;;2.20;;
49544;SDS011;74870;42.636;23.302;2024-03-08T11:58:37;2.93;;;2.40;;
49544;SDS011;74870;42.636;23.302;2024-03-08T12:01:04;2.10;;;2.00;;
49544;SDS011;74870;42.636;23.302;2024-03-08T12:03:34;2.90;;;2.60;;
49544;SDS011;74870;42.636;23.302;2024-03-08T12:06:00;2.50;;;2.30;;
49544;SDS011;74870;42.636;23.302;2024-03-08T12:08:26;2.20;;;2.10;;
49544;SDS011;74870;42.636;23.302;2024-03-08T12:10:55;3.57;;;2.07;;
49544;SDS011;74870;42.636;23.302;2024-03-08T12:13:28;2.13;;;2.03;;
49544;SDS011;74870;42.636;23.302;2024-03-08T12:15:59;1.97;;;1.87;;
49544;SDS011;74870;42.636;23.302;2024-03-08T12:18:37;2.20;;;2.10;;
49544;SDS011;74870;42.636;23.302;2024-03-08T12:21:07;2.50;;;2.30;;
49544;SDS011;74870;42.636;23.302;2024-03-08T12:23:34;3.17;;;2.97;;
49544;SDS011;74870;42.636;23.302;2024-03-08T12:26:09;2.50;;;2.40;;
49544;SDS011;74870;42.636;23.302;2024-03-08T12:28:38;2.50;;;2.30;;
49544;SDS011;74870;42.636;23.302;2024-03-08T12:31:03;2.60;;;2.40;;
49544;SDS011;74870;42.636;23.302;2024-03-08T12:33:35;2.73;;;2.40;;
49544;SDS011;74870;42.636;23.302;2024-03-08T12:36:02;2.63;;;2.43;;
49544;SDS011;74870;42.636;23.302;2024-03-08T12:38:32;2.37;;;2.17;;
49544;SDS011;74870;42.636;23.302;2024-03-08T12:40:58;2.83;;;2.50;;
49544;SDS011;74870;42.636;23.302;2024-03-08T12:43:24;2.93;;;2.50;;
49544;SDS011;74870;42.636;23.302;2024-03-08T12:45:49;5.17;;;4.40;;
49544;SDS011;74870;42.636;23.302;2024-03-08T12:48:16;3.30;;;3.10;;
49544;SDS011;74870;42.636;23.302;2024-03-08T12:50:42;3.50;;;2.50;;
49544;SDS011;74870;42.636;23.302;2024-03-08T12:53:12;4.17;;;2.73;;
49544;SDS011;74870;42.636;23.302;2024-03-08T12:55:38;2.40;;;2.20;;
49544;SDS011;74870;42.636;23.302;2024-03-08T12:58:05;2.10;;;2.00;;
49544;SDS011;74870;42.636;23.302;2024-03-08T13:00:32;1.83;;;1.77;;
49544;SDS011;74870;42.636;23.302;2024-03-08T13:03:02;1.60;;;1.60;;
49544;SDS011;74870;42.636;23.302;2024-03-08T13:05:27;1.80;;;1.70;;
49544;SDS011;74870;42.636;23.302;2024-03-08T13:07:53;2.40;;;1.63;;
49544;SDS011;74870;42.636;23.302;2024-03-08T13:10:20;2.53;;;2.43;;
49544;SDS011;74870;42.636;23.302;2024-03-08T13:12:45;2.00;;;1.90;;
49544;SDS011;74870;42.636;23.302;2024-03-08T13:15:11;2.20;;;2.00;;
49544;SDS011;74870;42.636;23.302;2024-03-08T13:17:44;2.40;;;2.30;;
49544;SDS011;74870;42.636;23.302;2024-03-08T13:20:11;2.43;;;1.90;;
49544;SDS011;74870;42.636;23.302;2024-03-08T13:22:41;3.97;;;2.27;;
49544;SDS011;74870;42.636;23.302;2024-03-08T13:25:07;2.00;;;1.90;;
49544;SDS011;74870;42.636;23.302;2024-03-08T13:27:38;2.23;;;2.13;;
49544;SDS011;74870;42.636;23.302;2024-03-08T13:30:07;2.30;;;2.20;;
49544;SDS011;74870;42.636;23.302;2024-03-08T13:32:38;3.60;;;3.30;;
49544;SDS011;74870;42.636;23.302;2024-03-08T13:35:04;2.03;;;1.83;;
49544;SDS011;74870;42.636;23.302;2024-03-08T13:37:37;2.20;;;2.10;;
49544;SDS011;74870;42.636;23.302;2024-03-08T13:40:04;2.10;;;2.00;;
49544;SDS011;74870;42.636;23.302;2024-03-08T13:42:31;2.00;;;1.90;;
49544;SDS011;74870;42.636;23.302;2024-03-08T13:44:56;1.90;;;1.80;;
49544;SDS011;74870;42.636;23.302;2024-03-08T13:47:21;1.90;;;1.80;;
49544;SDS011;74870;42.636;23.302;2024-03-08T13:49:47;2.47;;;1.97;;
49544;SDS011;74870;42.636;23.302;2024-03-08T13:52:15;1.73;;;1.63;;
49544;SDS011;74870;42.636;23.302;2024-03-08T13:54:41;2.27;;;2.17;;
49544;SDS011;74870;42.636;23.302;2024-03-08T13:57:08;2.50;;;2.30;;
49544;SDS011;74870;42.636;23.302;2024-03-08T13:59:33;2.10;;;2.00;;
49544;SDS011;74870;42.636;23.302;2024-03-08T14:02:00;1.83;;;1.73;;
49544;SDS011;74870;42.636;23.302;2024-03-08T14:04:29;1.80;;;1.80;;
49544;SDS011;74870;42.636;23.302;2024-03-08T14:06:54;2.10;;;2.00;;
49544;SDS011;74870;42.636;23.302;2024-03-08T14:09:24;1.80;;;1.70;;
49544;SDS011;74870;42.636;23.302;2024-03-08T14:11:53;2.13;;;2.03;;
49544;SDS011;74870;42.636;23.302;2024-03-08T14:14:21;2.00;;;1.90;;
49544;SDS011;74870;42.636;23.302;2024-03-08T14:16:50;2.50;;;2.40;;
49544;SDS011;74870;42.636;23.302;2024-03-08T14:19:19;1.77;;;1.67;;
49544;SDS011;74870;42.636;23.302;2024-03-08T14:21:45;2.23;;;2.03;;
49544;SDS011;74870;42.636;23.302;2024-03-08T14:24:12;2.30;;;2.10;;
49544;SDS011;74870;42.636;23.302;2024-03-08T14:26:37;2.17;;;1.90;;
49544;SDS011;74870;42.636;23.302;2024-03-08T14:29:03;1.80;;;1.70;;
49544;SDS011;74870;42.636;23.302;2024-03-08T14:31:30;4.83;;;1.93;;
49544;SDS011;74870;42.636;23.302;2024-03-08T14:33:55;2.27;;;2.00;;
49544;SDS011;74870;42.636;23.302;2024-03-08T14:36:22;2.17;;;2.07;;
49544;SDS011;74870;42.636;23.302;2024-03-08T14:38:48;2.73;;;2.53;;
49544;SDS011;74870;42.636;23.302;2024-03-08T14:41:14;2.37;;;2.07;;